Time;durP1;ratioP1;P1;durP2;ratioP2;P2;SDS_P1;SDS_P2;PMS_P1;PMS_P2;Temp;Humidity;BMP_temperature;BMP_pressure;BME280_temperature;BME280_humidity;BME280_pressure;Samples;Min_cycle;Max_cycle;Signal;HPM_P1;HPM_P2
2022/03/13 00:00:29;;;;;;;21.83;15.13;;;7.10;99.90;;;;;;5080450;28;20168;-86
2022/03/13 00:02:55;;;;;;;20.60;14.40;;;7.10;99.90;;;;;;5098569;28;20050;-86
2022/03/13 00:05:22;;;;;;;21.13;14.52;;;7.10;99.90;;;;;;5084311;28;20174;-86
2022/03/13 00:07:48;;;;;;;19.75;14.43;;;7.20;99.90;;;;;;5076827;28;20442;-86
2022/03/13 00:10:17;;;;;;;19.52;13.82;;;7.10;99.90;;;;;;5076810;28;20483;-82
2022/03/13 00:12:46;;;;;;;21.15;15.40;;;7.10;99.90;;;;;;5100734;28;20032;-81
2022/03/13 00:15:14;;;;;;;20.20;14.18;;;7.10;99.90;;;;;;5080906;28;20044;-81
2022/03/13 00:17:41;;;;;;;21.30;14.90;;;7.00;99.90;;;;;;5077097;28;20035;-81
2022/03/13 00:20:08;;;;;;;20.52;15.00;;;7.30;99.90;;;;;;5060558;28;20043;-81
2022/03/13 00:22:36;;;;;;;22.85;15.05;;;7.10;99.90;;;;;;5094995;28;20101;-81
2022/03/13 00:25:08;;;;;;;19.58;14.50;;;7.10;99.90;;;;;;5093279;28;20507;-82
2022/03/13 00:27:34;;;;;;;19.77;15.23;;;7.10;99.90;;;;;;5093594;28;20040;-81
2022/03/13 00:30:01;;;;;;;21.73;15.52;;;7.00;99.90;;;;;;5102610;28;20387;-81
2022/03/13 00:32:27;;;;;;;21.42;15.10;;;7.10;99.90;;;;;;5092808;28;20039;-81
2022/03/13 00:34:53;;;;;;;21.17;15.23;;;7.10;99.90;;;;;;5095293;28;20040;-81
2022/03/13 00:37:19;;;;;;;20.83;15.20;;;7.10;99.90;;;;;;5077529;28;20040;-81
2022/03/13 00:39:47;;;;;;;21.13;14.57;;;7.00;99.90;;;;;;5095235;28;20048;-81
2022/03/13 00:42:13;;;;;;;20.25;15.85;;;7.00;99.90;;;;;;5075883;28;20047;-81
2022/03/13 00:44:39;;;;;;;21.15;15.75;;;7.00;99.90;;;;;;5075812;28;20415;-81
2022/03/13 00:47:05;;;;;;;22.52;15.10;;;7.00;99.90;;;;;;5094747;28;20044;-81
2022/03/13 00:49:32;;;;;;;21.27;15.48;;;7.00;99.90;;;;;;5072541;28;20188;-81
2022/03/13 00:52:00;;;;;;;21.25;14.93;;;7.00;99.90;;;;;;5077907;28;20107;-81
2022/03/13 00:54:26;;;;;;;22.02;14.40;;;7.30;99.90;;;;;;5092614;28;20040;-81
2022/03/13 00:56:53;;;;;;;23.20;15.30;;;7.00;99.90;;;;;;5074905;28;20063;-81
2022/03/13 00:59:21;;;;;;;19.80;14.50;;;7.00;99.90;;;;;;5077582;28;20047;-81
2022/03/13 01:01:47;;;;;;;23.02;15.93;;;7.00;99.90;;;;;;5075142;28;20384;-81
2022/03/13 01:04:13;;;;;;;23.00;15.77;;;7.00;99.90;;;;;;5074932;28;20123;-81
2022/03/13 01:06:40;;;;;;;22.13;15.95;;;7.00;99.90;;;;;;5104746;27;20047;-81
2022/03/13 01:09:06;;;;;;;21.33;14.25;;;7.00;99.90;;;;;;5080218;28;20506;-81
2022/03/13 01:11:31;;;;;;;21.90;15.55;;;7.00;99.90;;;;;;5114298;27;20047;-81
2022/03/13 01:13:57;;;;;;;22.42;15.23;;;7.20;99.90;;;;;;5112029;27;20039;-81
2022/03/13 01:16:27;;;;;;;20.15;15.25;;;6.90;99.90;;;;;;5077937;28;20042;-81
2022/03/13 01:19:00;;;;;;;20.35;15.07;;;6.90;99.90;;;;;;5114452;27;20050;-81
2022/03/13 01:21:27;;;;;;;22.08;15.93;;;6.90;99.90;;;;;;5115803;27;20047;-81
2022/03/13 01:23:59;;;;;;;21.67;15.40;;;6.90;99.90;;;;;;5094871;28;20039;-81
2022/03/13 01:26:25;;;;;;;22.23;16.10;;;6.90;99.90;;;;;;5094507;28;20112;-81
2022/03/13 01:28:53;;;;;;;22.67;15.55;;;6.90;99.90;;;;;;5113593;27;20039;-81
2022/03/13 01:31:22;;;;;;;20.33;14.60;;;7.00;99.90;;;;;;5113833;27;20059;-81
2022/03/13 01:33:48;;;;;;;21.83;14.70;;;7.00;99.90;;;;;;5094801;28;20044;-81
2022/03/13 01:36:14;;;;;;;20.38;15.07;;;7.10;99.90;;;;;;5096907;28;20044;-81
2022/03/13 01:38:40;;;;;;;21.08;15.07;;;7.30;99.90;;;;;;5110411;28;20046;-81
2022/03/13 01:41:07;;;;;;;20.60;14.20;;;7.10;99.90;;;;;;5096778;27;20039;-81
2022/03/13 01:43:33;;;;;;;22.00;15.90;;;7.10;99.90;;;;;;5113571;27;20047;-81
2022/03/13 01:46:00;;;;;;;21.13;14.85;;;7.20;99.90;;;;;;5111325;28;20089;-81
2022/03/13 01:48:27;;;;;;;23.02;15.38;;;7.10;99.90;;;;;;5096728;28;20049;-81
2022/03/13 01:50:53;;;;;;;22.95;15.07;;;7.20;99.90;;;;;;5111579;28;20487;-81
2022/03/13 01:53:21;;;;;;;22.02;14.95;;;7.20;99.90;;;;;;5093573;28;20035;-81
2022/03/13 01:55:48;;;;;;;20.83;14.00;;;7.30;99.90;;;;;;5111367;28;20039;-81
2022/03/13 01:58:15;;;;;;;20.63;13.75;;;7.20;99.90;;;;;;5077343;28;20075;-81
2022/03/13 02:00:41;;;;;;;20.08;14.73;;;7.30;99.90;;;;;;5096426;28;20126;-81
2022/03/13 02:03:07;;;;;;;20.10;15.10;;;7.20;99.90;;;;;;5076606;28;20127;-81
2022/03/13 02:05:35;;;;;;;22.42;15.48;;;7.20;99.90;;;;;;5096469;28;20044;-81
2022/03/13 02:08:12;;;;;;;20.27;13.65;;;7.20;99.90;;;;;;5112901;27;20062;-81
2022/03/13 02:10:38;;;;;;;21.73;14.57;;;7.20;99.90;;;;;;5098079;27;20035;-81
2022/03/13 02:13:04;;;;;;;21.27;14.93;;;7.20;99.90;;;;;;5097933;27;20039;-81
2022/03/13 02:15:32;;;;;;;23.20;15.48;;;7.10;99.90;;;;;;5114366;27;20047;-81
2022/03/13 02:18:03;;;;;;;21.05;14.88;;;7.20;99.90;;;;;;5116256;27;20043;-81
2022/03/13 02:20:28;;;;;;;21.33;14.55;;;7.20;99.90;;;;;;5119650;27;20490;-81
2022/03/13 02:23:02;;;;;;;20.90;14.75;;;7.20;99.90;;;;;;5117762;27;20041;-81
2022/03/13 02:25:34;;;;;;;20.55;15.05;;;7.10;99.90;;;;;;5113640;27;20094;-81
2022/03/13 02:28:00;;;;;;;20.30;15.13;;;7.10;99.90;;;;;;5091661;27;20047;-81
2022/03/13 02:30:26;;;;;;;22.42;15.23;;;7.10;99.90;;;;;;5099058;27;20035;-81
2022/03/13 02:32:53;;;;;;;21.13;15.05;;;7.10;99.90;;;;;;5097086;27;20538;-82
2022/03/13 02:35:20;;;;;;;21.27;15.48;;;7.00;99.90;;;;;;5098851;27;20112;-82
2022/03/13 02:37:46;;;;;;;21.00;15.02;;;7.00;99.90;;;;;;5113483;27;20078;-81
2022/03/13 02:40:20;;;;;;;21.13;15.55;;;6.90;99.90;;;;;;5096743;27;20117;-81
2022/03/13 02:42:45;;;;;;;23.23;15.75;;;6.90;99.90;;;;;;5098927;27;20100;-81
2022/03/13 02:45:25;;;;;;;21.55;16.02;;;6.80;99.90;;;;;;5093371;27;20440;-81
2022/03/13 02:47:51;;;;;;;21.92;16.02;;;6.80;99.90;;;;;;5117717;27;20039;-81
2022/03/13 02:50:17;;;;;;;21.33;15.32;;;6.80;99.90;;;;;;5115875;27;20433;-81
2022/03/13 02:52:43;;;;;;;21.98;15.27;;;6.70;99.90;;;;;;5078126;27;20114;-81
2022/03/13 02:55:09;;;;;;;21.30;15.05;;;6.70;99.90;;;;;;5113970;27;20500;-81
2022/03/13 02:57:35;;;;;;;20.38;15.48;;;6.70;99.90;;;;;;5096564;27;20050;-81
2022/03/13 03:00:01;;;;;;;21.55;14.98;;;6.70;99.90;;;;;;5089682;27;20126;-81
2022/03/13 03:02:27;;;;;;;20.73;14.40;;;6.60;99.90;;;;;;5113743;27;20468;-81
2022/03/13 03:04:54;;;;;;;21.40;15.40;;;6.70;99.90;;;;;;5117003;27;20042;-81
2022/03/13 03:07:20;;;;;;;21.05;14.55;;;6.70;99.90;;;;;;5089358;28;20456;-81
2022/03/13 03:09:46;;;;;;;19.98;14.65;;;6.60;99.90;;;;;;5090504;28;20040;-82
2022/03/13 03:12:12;;;;;;;21.20;15.40;;;6.60;99.90;;;;;;5058328;28;20042;-81
2022/03/13 03:14:38;;;;;;;22.00;15.10;;;6.60;99.90;;;;;;5091206;28;20480;-81
2022/03/13 03:17:04;;;;;;;19.90;14.30;;;6.90;99.90;;;;;;5068850;28;20040;-81
2022/03/13 03:19:30;;;;;;;20.52;14.95;;;6.60;99.90;;;;;;5095342;28;20105;-81
2022/03/13 03:21:56;;;;;;;21.17;15.35;;;6.70;99.90;;;;;;5101565;28;20048;-81
2022/03/13 03:24:25;;;;;;;20.80;14.82;;;6.50;99.90;;;;;;5078842;28;20445;-81
2022/03/13 03:26:53;;;;;;;21.27;14.52;;;6.50;99.90;;;;;;5093412;28;20497;-81
2022/03/13 03:29:19;;;;;;;21.23;15.13;;;6.40;99.90;;;;;;5093465;28;20048;-81
2022/03/13 03:31:48;;;;;;;20.40;14.73;;;6.40;99.90;;;;;;5093845;28;20044;-81
2022/03/13 03:34:16;;;;;;;20.63;14.63;;;6.40;99.90;;;;;;5079615;28;20028;-81
2022/03/13 03:36:51;;;;;;;21.83;15.82;;;6.30;99.90;;;;;;5095786;28;20072;-81
2022/03/13 03:39:19;;;;;;;21.88;15.65;;;6.30;99.90;;;;;;5094418;28;20099;-81
2022/03/13 03:41:47;;;;;;;21.30;15.77;;;6.30;99.90;;;;;;5093804;28;20378;-81
2022/03/13 03:44:13;;;;;;;20.33;15.65;;;6.20;99.90;;;;;;5075722;28;20040;-81
2022/03/13 03:46:41;;;;;;;21.75;15.18;;;6.00;99.90;;;;;;5095180;28;20533;-81
2022/03/13 03:49:07;;;;;;;21.27;15.60;;;5.90;99.90;;;;;;5077610;28;20040;-81
2022/03/13 03:51:34;;;;;;;22.27;15.63;;;5.90;99.90;;;;;;5067623;28;20398;-81
2022/03/13 03:54:01;;;;;;;21.65;16.00;;;5.90;99.90;;;;;;5085152;28;20402;-81
2022/03/13 03:56:27;;;;;;;20.73;15.15;;;5.90;99.90;;;;;;5094893;28;20376;-82
2022/03/13 03:58:53;;;;;;;21.08;16.10;;;5.80;99.90;;;;;;5099501;28;20046;-82
2022/03/13 04:01:18;;;;;;;22.25;15.43;;;5.90;99.90;;;;;;5092773;28;20040;-82
2022/03/13 04:03:45;;;;;;;20.67;15.55;;;5.70;99.90;;;;;;5093094;28;20043;-81
2022/03/13 04:06:10;;;;;;;21.80;15.23;;;5.70;99.90;;;;;;5099025;27;20059;-81
2022/03/13 04:08:36;;;;;;;21.63;15.13;;;5.60;99.90;;;;;;5098347;27;20035;-81
2022/03/13 04:11:02;;;;;;;21.42;15.82;;;5.60;99.90;;;;;;5118114;27;20066;-81
2022/03/13 04:13:33;;;;;;;21.80;15.60;;;5.60;99.90;;;;;;5101020;27;20074;-81
2022/03/13 04:15:58;;;;;;;22.10;15.40;;;5.70;99.90;;;;;;5098146;27;20043;-80
2022/03/13 04:18:24;;;;;;;22.60;15.90;;;5.50;99.90;;;;;;5119122;27;20045;-81
2022/03/13 04:20:50;;;;;;;20.40;15.48;;;5.40;99.90;;;;;;5102624;27;20513;-81
2022/03/13 04:23:15;;;;;;;19.90;14.65;;;5.40;99.90;;;;;;5116098;27;20456;-81
2022/03/13 04:25:41;;;;;;;21.20;14.90;;;5.30;99.90;;;;;;5115502;27;20089;-81
2022/03/13 04:28:10;;;;;;;22.08;14.77;;;5.30;99.90;;;;;;5101768;27;20134;-81
2022/03/13 04:30:39;;;;;;;19.58;14.20;;;5.90;99.90;;;;;;5092526;27;20053;-81
2022/03/13 04:33:06;;;;;;;21.85;14.63;;;5.40;99.90;;;;;;5101126;27;20413;-81
2022/03/13 04:35:32;;;;;;;19.83;14.55;;;5.30;99.90;;;;;;5099885;27;20542;-81
2022/03/13 04:37:58;;;;;;;20.80;13.95;;;5.30;99.90;;;;;;5082196;27;20047;-81
2022/03/13 04:40:24;;;;;;;21.92;15.02;;;5.40;99.90;;;;;;5082224;27;20051;-81
2022/03/13 04:42:50;;;;;;;24.15;16.08;;;5.30;99.90;;;;;;5092551;27;20050;-81
2022/03/13 04:45:17;;;;;;;21.65;14.65;;;5.30;99.90;;;;;;5100724;27;20494;-81
2022/03/13 04:47:43;;;;;;;21.33;14.50;;;5.30;99.90;;;;;;5116849;27;20067;-81
2022/03/13 04:50:09;;;;;;;19.15;13.63;;;5.20;99.90;;;;;;5116727;27;20114;-81
2022/03/13 04:52:35;;;;;;;18.40;13.05;;;5.20;99.90;;;;;;5096169;27;20054;-81
2022/03/13 04:55:00;;;;;;;19.92;14.20;;;5.20;99.90;;;;;;5103376;27;20039;-81
2022/03/13 04:57:26;;;;;;;21.13;14.20;;;5.20;99.90;;;;;;5099202;27;20043;-81
2022/03/13 04:59:52;;;;;;;20.05;14.10;;;5.20;99.90;;;;;;5101267;27;20049;-81
2022/03/13 05:02:18;;;;;;;21.17;13.95;;;5.20;99.90;;;;;;5100687;27;20522;-81
2022/03/13 05:04:44;;;;;;;22.50;14.48;;;5.20;99.90;;;;;;5097661;27;20136;-81
2022/03/13 05:07:10;;;;;;;19.95;14.75;;;5.20;99.90;;;;;;5115956;27;20100;-81
2022/03/13 05:09:36;;;;;;;21.30;13.80;;;5.10;99.90;;;;;;5098856;27;20122;-81
2022/03/13 05:12:10;;;;;;;19.95;14.60;;;5.10;99.90;;;;;;5115620;27;20066;-81
2022/03/13 05:14:37;;;;;;;19.92;14.30;;;5.00;99.90;;;;;;5098749;27;20047;-81
2022/03/13 05:17:03;;;;;;;19.02;13.38;;;5.10;99.90;;;;;;5101954;27;20035;-81
2022/03/13 05:19:29;;;;;;;21.13;13.88;;;5.00;99.90;;;;;;5098794;27;20043;-81
2022/03/13 05:21:55;;;;;;;18.98;12.85;;;5.00;99.90;;;;;;5103901;27;20130;-81
2022/03/13 05:24:21;;;;;;;19.45;13.38;;;5.00;99.90;;;;;;5117109;27;20027;-81
2022/03/13 05:26:47;;;;;;;17.63;12.70;;;5.10;99.90;;;;;;5114692;27;20099;-81
2022/03/13 05:29:13;;;;;;;18.70;12.85;;;5.10;99.90;;;;;;5097421;27;20043;-81
2022/03/13 05:31:40;;;;;;;19.67;13.40;;;5.10;99.90;;;;;;5098109;27;20118;-81
2022/03/13 05:34:07;;;;;;;18.30;13.07;;;5.50;99.90;;;;;;5100636;27;20446;-81
2022/03/13 05:36:32;;;;;;;20.35;13.40;;;5.00;99.90;;;;;;5099503;27;20118;-81
2022/03/13 05:38:58;;;;;;;18.80;13.20;;;5.00;99.90;;;;;;5084160;27;20122;-81
2022/03/13 05:41:25;;;;;;;19.67;12.88;;;4.90;99.90;;;;;;5091701;27;20043;-81
2022/03/13 05:43:52;;;;;;;20.08;14.75;;;5.00;99.90;;;;;;5115007;27;20041;-81
2022/03/13 05:46:18;;;;;;;19.27;13.27;;;4.90;99.90;;;;;;5098138;27;20032;-81
2022/03/13 05:48:44;;;;;;;18.52;12.95;;;4.80;99.90;;;;;;5080802;27;20118;-81
2022/03/13 05:51:10;;;;;;;19.38;13.05;;;5.30;99.90;;;;;;5081220;27;20046;-81
2022/03/13 05:53:35;;;;;;;18.65;12.77;;;4.80;99.90;;;;;;5097415;27;20063;-81
2022/03/13 05:56:01;;;;;;;18.67;12.60;;;4.80;99.90;;;;;;5097587;27;20086;-81
2022/03/13 05:58:27;;;;;;;17.85;12.73;;;4.80;99.90;;;;;;5090419;27;20405;-81
2022/03/13 06:01:11;;;;;;;18.58;12.52;;;4.90;99.90;;;;;;5117187;27;20039;-81
2022/03/13 06:03:38;;;;;;;18.00;12.13;;;4.90;99.90;;;;;;5097633;27;20047;-81
2022/03/13 06:06:04;;;;;;;19.15;13.02;;;4.90;99.90;;;;;;5117398;27;20043;-81
2022/03/13 06:08:31;;;;;;;17.88;12.75;;;4.90;99.90;;;;;;5097280;27;20055;-81
2022/03/13 06:11:00;;;;;;;16.63;11.82;;;4.90;99.90;;;;;;5101830;27;20039;-81
2022/03/13 06:13:25;;;;;;;20.23;13.48;;;4.90;99.90;;;;;;5095993;27;20065;-81
2022/03/13 06:15:51;;;;;;;18.80;13.25;;;4.90;99.90;;;;;;5088953;27;20039;-81
2022/03/13 06:18:17;;;;;;;16.63;11.40;;;5.00;99.90;;;;;;5115959;27;20039;-81
2022/03/13 06:20:43;;;;;;;19.50;13.70;;;5.00;99.90;;;;;;5116592;27;20070;-81
2022/03/13 06:23:11;;;;;;;20.10;13.57;;;5.10;99.90;;;;;;5115900;27;20042;-81
2022/03/13 06:25:36;;;;;;;18.55;12.60;;;5.30;99.90;;;;;;5116515;27;20514;-81
2022/03/13 06:28:03;;;;;;;20.27;12.98;;;5.00;99.90;;;;;;5096625;27;20035;-81
2022/03/13 06:30:29;;;;;;;21.48;13.82;;;5.00;99.90;;;;;;5099864;27;20075;-81
2022/03/13 06:32:56;;;;;;;19.63;12.95;;;5.10;99.90;;;;;;5095399;28;20067;-81
2022/03/13 06:35:23;;;;;;;18.27;13.57;;;5.10;99.90;;;;;;5099116;27;20035;-81
2022/03/13 06:37:54;;;;;;;21.30;12.55;;;5.20;99.90;;;;;;5096048;27;20043;-81
2022/03/13 06:40:22;;;;;;;19.85;13.45;;;5.30;99.90;;;;;;5116156;27;20073;-81
2022/03/13 06:42:50;;;;;;;19.52;13.73;;;5.30;99.90;;;;;;5082497;27;20154;-81
2022/03/13 06:45:16;;;;;;;18.02;12.60;;;5.50;99.90;;;;;;5115553;27;20053;-81
2022/03/13 06:47:49;;;;;;;19.58;12.98;;;5.60;99.90;;;;;;5096981;27;20035;-81
2022/03/13 06:50:17;;;;;;;17.25;12.10;;;5.60;99.70;;;;;;5099514;27;20096;-81
2022/03/13 06:52:45;;;;;;;20.25;13.23;;;5.70;98.80;;;;;;5102712;27;20046;-81
2022/03/13 06:55:14;;;;;;;18.08;12.52;;;5.80;99.40;;;;;;5101394;27;20038;-81
2022/03/13 06:57:43;;;;;;;18.48;12.90;;;5.90;98.70;;;;;;5104020;27;20050;-81
2022/03/13 07:00:15;;;;;;;18.83;11.60;;;5.90;99.10;;;;;;5119207;27;20041;-83
2022/03/13 07:02:40;;;;;;;18.27;12.87;;;6.00;99.40;;;;;;5119082;27;20043;-82
2022/03/13 07:05:07;;;;;;;18.25;12.63;;;6.10;99.90;;;;;;5118147;27;20051;-81
2022/03/13 07:07:33;;;;;;;18.58;12.63;;;6.00;99.50;;;;;;5100335;27;20490;-83
2022/03/13 07:09:59;;;;;;;19.35;12.52;;;6.20;98.50;;;;;;5101904;27;20064;-81
2022/03/13 07:12:25;;;;;;;18.60;12.25;;;6.20;97.80;;;;;;5117846;27;20118;-81
2022/03/13 07:14:55;;;;;;;17.10;12.02;;;6.30;96.80;;;;;;5105754;27;20038;-81
2022/03/13 07:17:21;;;;;;;19.20;12.32;;;6.20;97.00;;;;;;5102852;27;20402;-81
2022/03/13 07:19:47;;;;;;;17.95;11.73;;;6.20;97.90;;;;;;5096755;27;20027;-81
2022/03/13 07:22:14;;;;;;;17.25;11.85;;;6.20;96.60;;;;;;5089393;27;20080;-81
2022/03/13 07:24:41;;;;;;;16.27;12.45;;;6.10;97.70;;;;;;5117202;27;20046;-81
2022/03/13 07:27:07;;;;;;;17.70;12.23;;;6.10;98.20;;;;;;5117076;27;20039;-80
2022/03/13 07:29:33;;;;;;;16.95;12.30;;;6.10;98.10;;;;;;5099076;27;20120;-82
2022/03/13 07:31:59;;;;;;;18.58;12.65;;;6.20;97.60;;;;;;5108177;27;20042;-82
2022/03/13 07:34:26;;;;;;;17.58;12.63;;;6.20;98.00;;;;;;5109595;27;20055;-82
2022/03/13 07:36:52;;;;;;;19.98;13.13;;;6.20;98.20;;;;;;5121066;27;20493;-81
2022/03/13 07:39:22;;;;;;;17.35;12.50;;;6.20;97.30;;;;;;5106968;27;20042;-81
2022/03/13 07:41:48;;;;;;;18.95;12.85;;;6.30;97.40;;;;;;5106790;27;20035;-81
2022/03/13 07:44:14;;;;;;;18.42;12.30;;;6.30;96.50;;;;;;5112956;27;20092;-80
2022/03/13 07:46:40;;;;;;;17.63;11.73;;;6.40;96.50;;;;;;5121624;27;20035;-80
2022/03/13 07:49:06;;;;;;;17.45;12.52;;;6.40;95.70;;;;;;5107735;27;20042;-80
2022/03/13 07:51:34;;;;;;;15.88;10.93;;;6.50;95.50;;;;;;5121363;27;20105;-80
2022/03/13 07:54:01;;;;;;;17.33;12.25;;;6.60;94.50;;;;;;5106408;27;20505;-80
2022/03/13 07:56:27;;;;;;;16.80;11.35;;;6.70;94.80;;;;;;5094032;27;20082;-80
2022/03/13 07:58:53;;;;;;;16.33;11.60;;;6.80;93.80;;;;;;5104553;27;20050;-80
2022/03/13 08:01:19;;;;;;;16.38;11.10;;;6.90;94.90;;;;;;5089592;27;20042;-80
2022/03/13 08:03:45;;;;;;;16.60;11.48;;;7.10;93.50;;;;;;5116694;27;20053;-80
2022/03/13 08:06:12;;;;;;;18.25;12.15;;;7.30;93.00;;;;;;5110334;27;20039;-81
2022/03/13 08:08:38;;;;;;;17.10;11.60;;;7.90;93.10;;;;;;5099779;27;20478;-80
2022/03/13 08:11:04;;;;;;;17.00;11.52;;;7.50;92.10;;;;;;5117320;27;20063;-80
2022/03/13 08:13:30;;;;;;;15.50;11.10;;;7.50;91.80;;;;;;5108290;27;20860;-80
2022/03/13 08:15:55;;;;;;;16.02;11.48;;;7.70;90.40;;;;;;5099300;27;20047;-80
2022/03/13 08:18:21;;;;;;;15.95;10.80;;;7.90;90.70;;;;;;5115498;27;20062;-81
2022/03/13 08:20:47;;;;;;;17.92;10.95;;;8.10;89.00;;;;;;5106790;27;20045;-81
2022/03/13 08:23:14;;;;;;;16.75;10.55;;;8.30;85.30;;;;;;5103012;27;20035;-81
2022/03/13 08:25:40;;;;;;;14.43;9.70;;;8.50;82.90;;;;;;5116277;27;20490;-81
2022/03/13 08:28:06;;;;;;;15.48;9.82;;;8.60;79.70;;;;;;5120974;27;20046;-81
2022/03/13 08:30:33;;;;;;;14.68;10.50;;;8.80;79.00;;;;;;5087026;27;20499;-81
2022/03/13 08:32:59;;;;;;;15.52;10.98;;;8.80;77.90;;;;;;5108830;27;20478;-81
2022/03/13 08:35:25;;;;;;;16.33;11.43;;;8.90;77.40;;;;;;5093213;27;20042;-81
2022/03/13 08:37:52;;;;;;;15.23;9.65;;;8.90;77.50;;;;;;5086941;27;20379;-81
2022/03/13 08:40:18;;;;;;;16.00;11.32;;;9.00;75.90;;;;;;5117259;27;20565;-80
2022/03/13 08:42:44;;;;;;;15.55;10.77;;;9.10;74.30;;;;;;5102924;27;20035;-80
2022/03/13 08:45:11;;;;;;;15.63;10.45;;;9.20;73.60;;;;;;5114063;27;20497;-80
2022/03/13 08:47:38;;;;;;;14.43;10.02;;;9.30;72.10;;;;;;5092077;27;20035;-80
2022/03/13 08:50:05;;;;;;;14.52;10.35;;;9.40;69.70;;;;;;5116619;27;20477;-81
2022/03/13 08:52:31;;;;;;;14.90;9.60;;;9.40;70.50;;;;;;5101446;27;20039;-80
2022/03/13 08:54:57;;;;;;;16.55;10.93;;;9.60;67.20;;;;;;5103047;27;20043;-80
2022/03/13 08:57:23;;;;;;;16.92;10.95;;;9.70;69.10;;;;;;5116828;27;20062;-80
2022/03/13 08:59:49;;;;;;;14.82;10.57;;;9.80;67.40;;;;;;5103184;27;20035;-80
2022/03/13 09:02:19;;;;;;;15.73;10.82;;;9.90;67.10;;;;;;5096477;27;20175;-80
2022/03/13 09:04:44;;;;;;;13.73;10.13;;;10.10;67.20;;;;;;5100439;27;20374;-80
2022/03/13 09:07:10;;;;;;;15.80;10.05;;;10.30;66.50;;;;;;5094809;27;20055;-80
2022/03/13 09:09:36;;;;;;;14.65;10.10;;;10.50;64.00;;;;;;5101063;27;20072;-80
2022/03/13 09:12:02;;;;;;;13.90;10.25;;;10.50;62.10;;;;;;5116545;27;20071;-80
2022/03/13 09:14:28;;;;;;;14.32;10.55;;;10.60;64.50;;;;;;5100515;27;20042;-79
2022/03/13 09:16:54;;;;;;;14.77;10.02;;;10.70;62.80;;;;;;5101988;27;20041;-79
2022/03/13 09:19:20;;;;;;;13.82;9.70;;;10.80;61.90;;;;;;5101570;27;20122;-79
2022/03/13 09:21:47;;;;;;;16.08;10.88;;;10.90;61.40;;;;;;5089649;27;20561;-79
2022/03/13 09:24:12;;;;;;;16.15;10.93;;;11.10;61.60;;;;;;5097355;27;20054;-79
2022/03/13 09:26:43;;;;;;;13.73;10.52;;;11.20;62.20;;;;;;5090864;27;20035;-79
2022/03/13 09:29:09;;;;;;;15.35;10.05;;;11.40;61.70;;;;;;5104881;27;20418;-81
2022/03/13 09:31:35;;;;;;;14.88;10.88;;;11.70;58.90;;;;;;5097637;27;20050;-80
2022/03/13 09:34:01;;;;;;;14.82;10.93;;;11.80;60.60;;;;;;5100936;27;20481;-81
2022/03/13 09:36:27;;;;;;;15.13;10.65;;;12.00;60.40;;;;;;5096128;27;20047;-80
2022/03/13 09:38:53;;;;;;;15.02;11.00;;;12.20;58.30;;;;;;5088803;27;20043;-80
2022/03/13 09:41:19;;;;;;;14.40;10.23;;;12.40;55.60;;;;;;5112849;27;20031;-80
2022/03/13 09:43:45;;;;;;;16.63;9.98;;;12.50;55.70;;;;;;5114877;27;20497;-80
2022/03/13 09:46:12;;;;;;;14.23;11.02;;;12.60;56.60;;;;;;5116142;27;20411;-80
2022/03/13 09:48:38;;;;;;;14.80;11.32;;;12.70;56.70;;;;;;5087359;27;20038;-80
2022/03/13 09:51:04;;;;;;;15.68;10.90;;;12.80;56.10;;;;;;5095043;27;20482;-80
2022/03/13 09:53:30;;;;;;;14.25;10.60;;;12.80;53.40;;;;;;5112885;27;20042;-80
2022/03/13 09:55:57;;;;;;;14.15;10.52;;;12.90;51.50;;;;;;5098785;27;20046;-80
2022/03/13 09:58:22;;;;;;;14.00;9.98;;;13.00;54.50;;;;;;5116382;27;20061;-80
2022/03/13 10:00:48;;;;;;;14.02;10.75;;;13.10;49.50;;;;;;5118056;27;20042;-80
2022/03/13 10:03:14;;;;;;;13.88;10.70;;;13.20;51.20;;;;;;5117304;27;20505;-79
2022/03/13 10:05:45;;;;;;;15.10;10.57;;;13.30;52.00;;;;;;5112858;27;20482;-79
2022/03/13 10:08:12;;;;;;;16.15;10.80;;;13.40;49.30;;;;;;5108866;27;20518;-79
2022/03/13 10:10:45;;;;;;;16.02;10.30;;;13.50;50.20;;;;;;5109488;27;20031;-80
2022/03/13 10:13:16;;;;;;;15.38;11.13;;;13.70;48.60;;;;;;5109890;28;20407;-80
2022/03/13 10:15:47;;;;;;;14.70;11.17;;;13.90;49.20;;;;;;5110261;27;20055;-80
2022/03/13 10:18:18;;;;;;;16.48;11.27;;;14.20;49.10;;;;;;5109670;28;20360;-80
2022/03/13 10:20:45;;;;;;;15.15;10.65;;;14.30;47.90;;;;;;5114156;27;20046;-79
2022/03/13 10:23:15;;;;;;;15.43;10.70;;;14.30;47.70;;;;;;5110947;27;20126;-79
2022/03/13 10:25:43;;;;;;;16.05;11.45;;;14.30;46.30;;;;;;5109993;27;20035;-80
2022/03/13 10:28:30;;;;;;;16.70;11.18;;;14.10;47.20;;;;;;5107208;27;20043;-83
2022/03/13 10:30:58;;;;;;;14.10;9.93;;;13.90;46.20;;;;;;5113064;28;20049;-82
2022/03/13 10:33:35;;;;;;;16.35;11.50;;;13.80;46.80;;;;;;5092083;28;20038;-80
2022/03/13 10:36:11;;;;;;;14.57;10.43;;;13.60;47.00;;;;;;5097161;28;20559;-80
2022/03/13 10:38:38;;;;;;;15.27;11.10;;;13.60;46.90;;;;;;5111670;28;20050;-80
2022/03/13 10:41:09;;;;;;;15.45;10.23;;;13.60;48.30;;;;;;5110980;28;20131;-80
2022/03/13 10:43:49;;;;;;;16.13;11.05;;;13.60;46.90;;;;;;5079317;28;20031;-79
2022/03/13 10:46:29;;;;;;;17.10;11.18;;;13.60;46.00;;;;;;5112340;28;20459;-80
2022/03/13 10:48:56;;;;;;;14.85;10.80;;;13.60;48.60;;;;;;5111081;28;20039;-80
2022/03/13 10:51:35;;;;;;;15.30;8.93;;;13.80;47.50;;;;;;5075751;28;20043;-80
2022/03/13 10:54:02;;;;;;;15.35;10.50;;;14.10;46.70;;;;;;5112686;28;20394;-80
2022/03/13 10:56:29;;;;;;;16.20;11.52;;;14.10;47.00;;;;;;5095519;28;20071;-80
2022/03/13 10:58:55;;;;;;;14.85;11.43;;;14.10;49.00;;;;;;5093014;28;20414;-80
2022/03/13 11:01:25;;;;;;;14.48;11.02;;;14.30;49.10;;;;;;5096125;28;20542;-80
2022/03/13 11:04:05;;;;;;;17.08;11.55;;;14.30;46.40;;;;;;5113813;28;20043;-80
2022/03/13 11:06:31;;;;;;;15.27;11.20;;;14.20;46.60;;;;;;5112570;27;20078;-80
2022/03/13 11:08:56;;;;;;;15.95;11.60;;;14.00;46.40;;;;;;5112945;27;20057;-79
2022/03/13 11:11:25;;;;;;;15.20;10.88;;;14.00;47.10;;;;;;5096909;28;20555;-80
2022/03/13 11:13:52;;;;;;;15.98;11.27;;;13.90;47.10;;;;;;5117739;27;20106;-80
2022/03/13 11:16:29;;;;;;;16.20;11.25;;;14.00;48.20;;;;;;5080334;27;20039;-80
2022/03/13 11:18:57;;;;;;;15.57;11.45;;;14.10;46.90;;;;;;5103089;27;20043;-81
2022/03/13 11:21:25;;;;;;;15.18;11.27;;;14.00;47.30;;;;;;5123735;27;20031;-81
2022/03/13 11:23:51;;;;;;;14.70;11.43;;;14.00;47.80;;;;;;5113698;27;20047;-81
2022/03/13 11:26:19;;;;;;;17.15;11.77;;;14.00;47.00;;;;;;5116076;27;20046;-81
2022/03/13 11:28:48;;;;;;;17.73;11.60;;;14.00;46.30;;;;;;5085571;27;20047;-80
2022/03/13 11:31:34;;;;;;;16.65;11.35;;;13.90;47.30;;;;;;5098640;27;20039;-81
2022/03/13 11:34:21;;;;;;;15.23;11.35;;;14.20;49.10;;;;;;5119335;27;20035;-81
2022/03/13 11:36:47;;;;;;;17.55;11.40;;;14.30;47.80;;;;;;5084211;27;20501;-81
2022/03/13 11:39:27;;;;;;;14.30;10.10;;;14.30;48.40;;;;;;5123495;27;20039;-81
2022/03/13 11:41:53;;;;;;;17.30;11.35;;;14.40;45.60;;;;;;5102621;27;20584;-79
2022/03/13 11:44:22;;;;;;;15.07;10.93;;;14.40;45.90;;;;;;5103131;27;20035;-79
2022/03/13 11:46:49;;;;;;;15.25;11.23;;;14.40;45.10;;;;;;5101099;27;20158;-79
2022/03/13 11:49:33;;;;;;;17.00;10.57;;;14.30;45.10;;;;;;5117944;27;20042;-79
2022/03/13 11:52:17;;;;;;;15.07;11.80;;;14.40;45.10;;;;;;5109640;27;20037;-79
2022/03/13 11:54:46;;;;;;;13.98;9.52;;;14.40;45.10;;;;;;5120569;27;20103;-80
2022/03/13 11:57:27;;;;;;;15.23;10.30;;;14.50;45.00;;;;;;5117604;27;20080;-80
2022/03/13 12:00:14;;;;;;;14.75;9.93;;;14.70;44.50;;;;;;5105260;27;20043;-80
2022/03/13 12:02:43;;;;;;;15.02;10.10;;;14.80;42.40;;;;;;5105180;27;20034;-80
2022/03/13 12:05:30;;;;;;;15.15;10.48;;;14.90;42.00;;;;;;5095571;27;20047;-79
2022/03/13 12:08:06;;;;;;;14.27;10.70;;;14.90;44.50;;;;;;5092848;27;20051;-79
2022/03/13 12:10:42;;;;;;;14.93;10.70;;;15.00;43.30;;;;;;5118026;27;20035;-80
2022/03/13 12:13:13;;;;;;;17.40;9.45;;;15.10;42.80;;;;;;5080605;27;20043;-80
2022/03/13 12:15:40;;;;;;;15.20;10.57;;;15.30;41.70;;;;;;5116739;27;20657;-80
2022/03/13 12:18:24;;;;;;;15.45;11.00;;;15.40;41.40;;;;;;5118209;27;20054;-80
2022/03/13 12:20:51;;;;;;;16.83;9.30;;;15.50;41.70;;;;;;5119184;27;20508;-82
2022/03/13 12:23:34;;;;;;;14.52;10.98;;;15.50;40.90;;;;;;5098339;27;20043;-81
2022/03/13 12:26:18;;;;;;;15.40;11.13;;;15.50;44.40;;;;;;5083178;27;20398;-79
2022/03/13 12:28:45;;;;;;;15.90;10.60;;;15.50;41.70;;;;;;5101289;27;20043;-79
2022/03/13 12:31:11;;;;;;;16.25;10.70;;;15.50;44.60;;;;;;5112853;27;20043;-79
2022/03/13 12:33:53;;;;;;;15.60;11.38;;;15.60;41.50;;;;;;5099376;27;20091;-79
2022/03/13 12:36:20;;;;;;;16.70;11.60;;;15.50;42.30;;;;;;5096767;27;20083;-79
2022/03/13 12:38:51;;;;;;;16.10;11.10;;;15.50;42.80;;;;;;5096664;27;20058;-79